Time;durP1;ratioP1;P1;durP2;ratioP2;P2;SDS_P1;SDS_P2;PMS_P1;PMS_P2;Temp;Humidity;BMP_temperature;BMP_pressure;BME280_temperature;BME280_humidity;BME280_pressure;Samples;Min_cycle;Max_cycle;Signal;HPM_P1;HPM_P2
2023/06/14 00:00:40;;;;;;;;;;;;;;;;;;5060852;28;19920;-82
2023/06/14 00:03:08;;;;;;;;;;;;;;;;;;5077249;28;19920;-82
2023/06/14 00:05:38;;;;;;;;;;;;;;;;;;5071010;28;19989;-82
2023/06/14 00:08:07;;;;;;;;;;;;;;;;;;5057559;28;19927;-84
2023/06/14 00:10:35;;;;;;;;;;;;;;;;;;5057290;28;19927;-82
2023/06/14 00:13:01;;;;;;;;;;;;;;;;;;5057082;28;19920;-81
2023/06/14 00:15:27;;;;;;;;;;;;;;;;;;5056981;28;19920;-85
2023/06/14 00:17:53;;;;;;;;;;;;;;;;;;5057185;28;19921;-82
2023/06/14 00:20:18;;;;;;;;;;;;;;;;;;5057490;28;19920;-81
2023/06/14 00:22:45;;;;;;;;;;;;;;;;;;5056937;28;20287;-81
2023/06/14 00:25:11;;;;;;;;;;;;;;;;;;5073314;28;20405;-82
2023/06/14 00:27:37;;;;;;;;;;;;;;;;;;5056620;28;19920;-82
2023/06/14 00:30:03;;;;;;;;;;;;;;;;;;5040541;28;19920;-81
2023/06/14 00:32:29;;;;;;;;;;;;;;;;;;5039689;28;20464;-86
2023/06/14 00:34:55;;;;;;;;;;;;;;;;;;5067388;28;20007;-82
2023/06/14 00:37:21;;;;;;;;;;;;;;;;;;5076863;28;20015;-81
2023/06/14 00:39:47;;;;;;;;;;;;;;;;;;5076306;28;19927;-82
2023/06/14 00:42:13;;;;;;;;;;;;;;;;;;5059431;28;19924;-82
2023/06/14 00:44:39;;;;;;;;;;;;;;;;;;5075912;28;19971;-81
2023/06/14 00:47:05;;;;;;;;;;;;;;;;;;5072276;28;19920;-82
2023/06/14 00:49:31;;;;;;;;;;;;;;;;;;5039165;28;19926;-83
2023/06/14 00:51:57;;;;;;;;;;;;;;;;;;5039949;28;19921;-81
2023/06/14 00:54:23;;;;;;;;;;;;;;;;;;5039187;28;19920;-82
2023/06/14 00:56:49;;;;;;;;;;;;;;;;;;5055845;28;19920;-83
2023/06/14 00:59:15;;;;;;;;;;;;;;;;;;5039677;28;20022;-82
2023/06/14 01:01:41;;;;;;;;;;;;;;;;;;5056177;28;19982;-82
2023/06/14 01:04:07;;;;;;;;;;;;;;;;;;5056009;28;19968;-82
2023/06/14 01:06:33;;;;;;;;;;;;;;;;;;5056148;28;19973;-81
2023/06/14 01:08:59;;;;;;;;;;;;;;;;;;5056251;28;19928;-82
2023/06/14 01:11:25;;;;;;;;;;;;;;;;;;5039652;28;19920;-82
2023/06/14 01:13:51;;;;;;;;;;;;;;;;;;5064252;28;19916;-82
2023/06/14 01:16:16;;;;;;;;;;;;;;;;;;5058613;28;19920;-82
2023/06/14 01:18:47;;;;;;;;;;;;;;;;;;5058832;28;19955;-82
2023/06/14 01:21:13;;;;;;;;;;;;;;;;;;5075610;28;19927;-81
2023/06/14 01:23:39;;;;;;;;;;;;;;;;;;5058851;28;19920;-82
2023/06/14 01:26:05;;;;;;;;;;;;;;;;;;5058319;28;19975;-83
2023/06/14 01:28:33;;;;;;;;;;;;;;;;;;5074890;28;19924;-86
2023/06/14 01:31:00;;;;;;;;;;;;;;;;;;5057945;28;20373;-83
2023/06/14 01:33:26;;;;;;;;;;;;;;;;;;5074326;28;20019;-82
2023/06/14 01:35:52;;;;;;;;;;;;;;;;;;5058717;28;20372;-82
2023/06/14 01:38:18;;;;;;;;;;;;;;;;;;5040573;28;19931;-83
2023/06/14 01:40:44;;;;;;;;;;;;;;;;;;5076088;28;19924;-82
2023/06/14 01:43:10;;;;;;;;;;;;;;;;;;5055658;28;19927;-82
2023/06/14 01:45:36;;;;;;;;;;;;;;;;;;5038848;28;19986;-82
2023/06/14 01:48:02;;;;;;;;;;;;;;;;;;5038784;28;19924;-83
2023/06/14 01:50:27;;;;;;;;;;;;;;;;;;5055551;28;20346;-83
2023/06/14 01:52:53;;;;;;;;;;;;;;;;;;5055402;28;19923;-82
2023/06/14 01:55:21;;;;;;;;;;;;;;;;;;5055708;28;19924;-83
2023/06/14 01:57:47;;;;;;;;;;;;;;;;;;5038297;28;19974;-82
2023/06/14 02:00:14;;;;;;;;;;;;;;;;;;5055526;28;19921;-82
2023/06/14 02:02:40;;;;;;;;;;;;;;;;;;5038376;28;20547;-82
2023/06/14 02:05:06;;;;;;;;;;;;;;;;;;5038977;28;19921;-81
2023/06/14 02:07:33;;;;;;;;;;;;;;;;;;5041190;28;19920;-82
2023/06/14 02:09:59;;;;;;;;;;;;;;;;;;5066798;28;19920;-81
2023/06/14 02:12:25;;;;;;;;;;;;;;;;;;5055450;28;20472;-82
2023/06/14 02:14:51;;;;;;;;;;;;;;;;;;5072072;28;20131;-81
2023/06/14 02:17:17;;;;;;;;;;;;;;;;;;5053929;28;19920;-81
2023/06/14 02:19:43;;;;;;;;;;;;;;;;;;5054834;28;19924;-81
2023/06/14 02:22:09;;;;;;;;;;;;;;;;;;5038650;28;19927;-83
2023/06/14 02:24:35;;;;;;;;;;;;;;;;;;5055093;28;19920;-83
2023/06/14 02:27:01;;;;;;;;;;;;;;;;;;5056350;28;20133;-81
2023/06/14 02:29:27;;;;;;;;;;;;;;;;;;5059305;28;19920;-82
2023/06/14 02:31:53;;;;;;;;;;;;;;;;;;5059083;28;19927;-81
2023/06/14 02:34:20;;;;;;;;;;;;;;;;;;5058368;28;19967;-82
2023/06/14 02:36:47;;;;;;;;;;;;;;;;;;5092264;28;19971;-82
2023/06/14 02:39:13;;;;;;;;;;;;;;;;;;5075880;28;20012;-82
2023/06/14 02:41:39;;;;;;;;;;;;;;;;;;5058776;28;20345;-83
2023/06/14 02:44:05;;;;;;;;;;;;;;;;;;5092571;28;19921;-82
2023/06/14 02:46:31;;;;;;;;;;;;;;;;;;5075915;28;20319;-81
2023/06/14 02:48:57;;;;;;;;;;;;;;;;;;5092149;28;19921;-82
2023/06/14 02:51:23;;;;;;;;;;;;;;;;;;5058883;28;19943;-82
2023/06/14 02:53:49;;;;;;;;;;;;;;;;;;5058441;28;19973;-81
2023/06/14 02:56:17;;;;;;;;;;;;;;;;;;5092385;28;19921;-82
2023/06/14 02:58:43;;;;;;;;;;;;;;;;;;5075053;28;19928;-82
2023/06/14 03:01:10;;;;;;;;;;;;;;;;;;5041983;28;20376;-82
2023/06/14 03:03:35;;;;;;;;;;;;;;;;;;5091857;28;19920;-81
2023/06/14 03:06:03;;;;;;;;;;;;;;;;;;5057777;28;20388;-82
2023/06/14 03:08:31;;;;;;;;;;;;;;;;;;5074379;28;20365;-82
2023/06/14 03:10:57;;;;;;;;;;;;;;;;;;5073969;28;19920;-82
2023/06/14 03:13:23;;;;;;;;;;;;;;;;;;5046150;28;19920;-81
2023/06/14 03:15:52;;;;;;;;;;;;;;;;;;5061103;28;19926;-82
2023/06/14 03:18:19;;;;;;;;;;;;;;;;;;5061542;28;19920;-82
2023/06/14 03:20:45;;;;;;;;;;;;;;;;;;5078063;28;19927;-82
2023/06/14 03:23:11;;;;;;;;;;;;;;;;;;5061973;28;19924;-81
2023/06/14 03:25:38;;;;;;;;;;;;;;;;;;5078413;28;19971;-81
2023/06/14 03:28:04;;;;;;;;;;;;;;;;;;5078078;28;20369;-82
2023/06/14 03:30:30;;;;;;;;;;;;;;;;;;5078302;28;19924;-83
2023/06/14 03:32:56;;;;;;;;;;;;;;;;;;5061037;28;19979;-82
2023/06/14 03:35:22;;;;;;;;;;;;;;;;;;5061473;28;19924;-82
2023/06/14 03:37:48;;;;;;;;;;;;;;;;;;5076961;28;20358;-82
2023/06/14 03:40:14;;;;;;;;;;;;;;;;;;5061373;28;19920;-81
2023/06/14 03:42:40;;;;;;;;;;;;;;;;;;5078043;28;19931;-81
2023/06/14 03:45:06;;;;;;;;;;;;;;;;;;5077975;28;19999;-82
2023/06/14 03:47:32;;;;;;;;;;;;;;;;;;5061133;28;20377;-81
2023/06/14 03:49:58;;;;;;;;;;;;;;;;;;5061024;28;20018;-82
2023/06/14 03:52:24;;;;;;;;;;;;;;;;;;5061017;28;19977;-82
2023/06/14 03:54:51;;;;;;;;;;;;;;;;;;5060839;28;20004;-82
2023/06/14 03:57:17;;;;;;;;;;;;;;;;;;5060441;28;19977;-82
2023/06/14 03:59:43;;;;;;;;;;;;;;;;;;5059904;28;19979;-87
2023/06/14 04:02:09;;;;;;;;;;;;;;;;;;5060419;28;19982;-81
2023/06/14 04:04:35;;;;;;;;;;;;;;;;;;5060703;28;19920;-81
2023/06/14 04:07:03;;;;;;;;;;;;;;;;;;5077348;28;19927;-81
2023/06/14 04:09:29;;;;;;;;;;;;;;;;;;5055095;28;19927;-81
2023/06/14 04:11:55;;;;;;;;;;;;;;;;;;5040576;28;19920;-81
2023/06/14 04:14:21;;;;;;;;;;;;;;;;;;5057005;28;19927;-81
2023/06/14 04:16:47;;;;;;;;;;;;;;;;;;5039741;28;20384;-82
2023/06/14 04:19:12;;;;;;;;;;;;;;;;;;5074875;28;20361;-81
2023/06/14 04:21:38;;;;;;;;;;;;;;;;;;5076988;28;19928;-82
2023/06/14 04:24:04;;;;;;;;;;;;;;;;;;5068687;28;19924;-81
2023/06/14 04:26:33;;;;;;;;;;;;;;;;;;5057203;28;19942;-81
2023/06/14 04:29:01;;;;;;;;;;;;;;;;;;5056695;28;19920;-81
2023/06/14 04:31:29;;;;;;;;;;;;;;;;;;5057065;28;20254;-81
2023/06/14 04:33:55;;;;;;;;;;;;;;;;;;5076617;28;19920;-81
2023/06/14 04:36:21;;;;;;;;;;;;;;;;;;5052379;28;19927;-80
2023/06/14 04:38:48;;;;;;;;;;;;;;;;;;5073059;28;20346;-86
2023/06/14 04:41:15;;;;;;;;;;;;;;;;;;5090070;28;20377;-81
2023/06/14 04:43:42;;;;;;;;;;;;;;;;;;5089582;28;19924;-81
2023/06/14 04:46:09;;;;;;;;;;;;;;;;;;5072411;28;19927;-81
2023/06/14 04:48:35;;;;;;;;;;;;;;;;;;5071903;28;19970;-81
2023/06/14 04:51:03;;;;;;;;;;;;;;;;;;5038504;28;19963;-81
2023/06/14 04:53:31;;;;;;;;;;;;;;;;;;5063398;28;20373;-84
2023/06/14 04:55:57;;;;;;;;;;;;;;;;;;5076284;28;19923;-81
2023/06/14 04:58:23;;;;;;;;;;;;;;;;;;5059847;28;19920;-81
2023/06/14 05:00:49;;;;;;;;;;;;;;;;;;5053390;28;19920;-86
2023/06/14 05:03:15;;;;;;;;;;;;;;;;;;5056549;28;19928;-81
2023/06/14 05:05:41;;;;;;;;;;;;;;;;;;5069430;28;19930;-81
2023/06/14 05:08:08;;;;;;;;;;;;;;;;;;5076276;28;19969;-81
2023/06/14 05:10:35;;;;;;;;;;;;;;;;;;5076528;28;19927;-81
2023/06/14 05:13:01;;;;;;;;;;;;;;;;;;5075585;28;19923;-81
2023/06/14 05:15:28;;;;;;;;;;;;;;;;;;5059228;28;19920;-85
2023/06/14 05:17:55;;;;;;;;;;;;;;;;;;5070831;28;20365;-81
2023/06/14 05:20:21;;;;;;;;;;;;;;;;;;5056228;28;19927;-80
2023/06/14 05:22:48;;;;;;;;;;;;;;;;;;5072608;28;19927;-80
2023/06/14 05:25:14;;;;;;;;;;;;;;;;;;5072534;28;20357;-81
2023/06/14 05:27:41;;;;;;;;;;;;;;;;;;5055910;28;19931;-81
2023/06/14 05:30:08;;;;;;;;;;;;;;;;;;5072482;28;20012;-82
2023/06/14 05:32:34;;;;;;;;;;;;;;;;;;5071428;28;20388;-82
2023/06/14 05:35:00;;;;;;;;;;;;;;;;;;5071299;28;20002;-80
2023/06/14 05:37:26;;;;;;;;;;;;;;;;;;5055776;28;19943;-81
2023/06/14 05:39:51;;;;;;;;;;;;;;;;;;5072149;28;20007;-85
2023/06/14 05:42:17;;;;;;;;;;;;;;;;;;5055764;28;19924;-81
2023/06/14 05:44:43;;;;;;;;;;;;;;;;;;5055514;28;19924;-81
2023/06/14 05:47:09;;;;;;;;;;;;;;;;;;5072095;28;19921;-81
2023/06/14 05:49:35;;;;;;;;;;;;;;;;;;5072156;28;19920;-80
2023/06/14 05:52:01;;;;;;;;;;;;;;;;;;5071892;28;19925;-81
2023/06/14 05:54:27;;;;;;;;;;;;;;;;;;5072106;28;19943;-80
2023/06/14 05:56:54;;;;;;;;;;;;;;;;;;5062990;28;20015;-85
2023/06/14 05:59:20;;;;;;;;;;;;;;;;;;5052009;28;19933;-82
2023/06/14 06:01:46;;;;;;;;;;;;;;;;;;5065649;28;20305;-81
2023/06/14 06:04:12;;;;;;;;;;;;;;;;;;5071675;28;19931;-80
2023/06/14 06:06:39;;;;;;;;;;;;;;;;;;5072058;28;20414;-80
2023/06/14 06:09:06;;;;;;;;;;;;;;;;;;5071896;28;19924;-81
2023/06/14 06:11:32;;;;;;;;;;;;;;;;;;5054053;28;19920;-70
2023/06/14 06:13:58;;;;;;;;;;;;;;;;;;5070199;28;19927;-65
2023/06/14 06:16:24;;;;;;;;;;;;;;;;;;5066983;28;19928;-68
2023/06/14 06:18:50;;;;;;;;;;;;;;;;;;5056828;28;20353;-69
2023/06/14 06:21:16;;;;;;;;;;;;;;;;;;5058404;28;19970;-69
2023/06/14 06:23:42;;;;;;;;;;;;;;;;;;5064494;28;20377;-71
2023/06/14 06:26:08;;;;;;;;;;;;;;;;;;5062260;28;19948;-71
2023/06/14 06:28:34;;;;;;;;;;;;;;;;;;5057222;28;19921;-68
2023/06/14 06:31:00;;;;;;;;;;;;;;;;;;5068189;28;19927;-68
2023/06/14 06:33:26;;;;;;;;;;;;;;;;;;5068700;28;19928;-68
2023/06/14 06:35:52;;;;;;;;;;;;;;;;;;5069641;28;20364;-69
2023/06/14 06:38:18;;;;;;;;;;;;;;;;;;5061520;28;19920;-69
2023/06/14 06:40:44;;;;;;;;;;;;;;;;;;5052747;28;19924;-69
2023/06/14 06:43:13;;;;;;;;;;;;;;;;;;5053972;28;19931;-70
2023/06/14 06:45:39;;;;;;;;;;;;;;;;;;5059081;28;19928;-79
2023/06/14 06:48:05;;;;;;;;;;;;;;;;;;5055537;28;19920;-78
2023/06/14 06:50:31;;;;;;;;;;;;;;;;;;5049934;28;19920;-78
2023/06/14 06:52:57;;;;;;;;;;;;;;;;;;5049172;28;19925;-78
2023/06/14 06:55:23;;;;;;;;;;;;;;;;;;5049010;28;19931;-79
2023/06/14 06:57:49;;;;;;;;;;;;;;;;;;5068384;28;20069;-76
2023/06/14 07:00:16;;;;;;;;;;;;;;;;;;5068581;28;20388;-79
2023/06/14 07:02:42;;;;;;;;;;;;;;;;;;5064250;28;19929;-65
2023/06/14 07:05:08;;;;;;;;;;;;;;;;;;5064094;28;20300;-83
2023/06/14 07:07:34;;;;;;;;;;;;;;;;;;5053712;28;19920;-83
2023/06/14 07:10:00;;;;;;;;;;;;;;;;;;5056963;28;20034;-87
2023/06/14 07:12:26;;;;;;;;;;;;;;;;;;5053314;28;19920;-82
2023/06/14 07:14:52;;;;;;;;;;;;;;;;;;5043935;28;19996;-83
2023/06/14 07:17:18;;;;;;;;;;;;;;;;;;5067251;28;20007;-82
2023/06/14 07:19:44;;;;;;;;;;;;;;;;;;5048531;28;19931;-83
2023/06/14 07:22:10;;;;;;;;;;;;;;;;;;5058517;28;19960;-82
2023/06/14 07:24:36;;;;;;;;;;;;;;;;;;5057881;28;19970;-83
2023/06/14 07:27:04;;;;;;;;;;;;;;;;;;5074434;28;19924;-85
2023/06/14 07:29:29;;;;;;;;;;;;;;;;;;5057510;28;19978;-82
2023/06/14 07:31:55;;;;;;;;;;;;;;;;;;5074263;28;19920;-82
2023/06/14 07:34:21;;;;;;;;;;;;;;;;;;5055426;28;19931;-83
2023/06/14 07:36:47;;;;;;;;;;;;;;;;;;5041662;28;19975;-82
2023/06/14 07:39:14;;;;;;;;;;;;;;;;;;5054290;28;20344;-83
2023/06/14 07:41:40;;;;;;;;;;;;;;;;;;5074316;28;20385;-82
2023/06/14 07:44:06;;;;;;;;;;;;;;;;;;5073472;28;19920;-83
2023/06/14 07:46:32;;;;;;;;;;;;;;;;;;5043867;28;19950;-83
2023/06/14 07:48:58;;;;;;;;;;;;;;;;;;5065429;28;20373;-83
2023/06/14 07:51:24;;;;;;;;;;;;;;;;;;5055578;28;19920;-83
2023/06/14 07:53:50;;;;;;;;;;;;;;;;;;5056729;28;20334;-83
2023/06/14 07:56:16;;;;;;;;;;;;;;;;;;5065543;28;20018;-84
2023/06/14 07:58:42;;;;;;;;;;;;;;;;;;5045994;28;20403;-83
2023/06/14 08:01:08;;;;;;;;;;;;;;;;;;5055949;28;19920;-82
2023/06/14 08:03:34;;;;;;;;;;;;;;;;;;5073077;28;19920;-82
2023/06/14 08:06:00;;;;;;;;;;;;;;;;;;5073120;28;19920;-81
2023/06/14 08:08:26;;;;;;;;;;;;;;;;;;5063037;28;19921;-82
2023/06/14 08:10:52;;;;;;;;;;;;;;;;;;5053936;28;20386;-82
2023/06/14 08:13:18;;;;;;;;;;;;;;;;;;5054179;28;20596;-84
2023/06/14 08:15:44;;;;;;;;;;;;;;;;;;5057126;28;19982;-74
2023/06/14 08:18:11;;;;;;;;;;;;;;;;;;5057617;28;19923;-80
2023/06/14 08:20:37;;;;;;;;;;;;;;;;;;5075087;28;19977;-81
2023/06/14 08:23:04;;;;;;;;;;;;;;;;;;5055186;28;19967;-82
2023/06/14 08:25:30;;;;;;;;;;;;;;;;;;5071535;28;19978;-81
2023/06/14 08:27:56;;;;;;;;;;;;;;;;;;5088632;28;20349;-82
2023/06/14 08:30:22;;;;;;;;;;;;;;;;;;5054773;28;20031;-81
2023/06/14 08:32:48;;;;;;;;;;;;;;;;;;5054493;28;19925;-71
2023/06/14 08:35:14;;;;;;;;;;;;;;;;;;5072243;28;20019;-73
2023/06/14 08:37:41;;;;;;;;;;;;;;;;;;5063533;28;19928;-81
2023/06/14 08:40:07;;;;;;;;;;;;;;;;;;5074674;28;19963;-79
2023/06/14 08:42:33;;;;;;;;;;;;;;;;;;5057715;28;20395;-82
2023/06/14 08:44:59;;;;;;;;;;;;;;;;;;5058424;28;19920;-84
2023/06/14 08:47:26;;;;;;;;;;;;;;;;;;5073355;28;20357;-81
2023/06/14 08:49:52;;;;;;;;;;;;;;;;;;5074699;28;19928;-77
2023/06/14 08:52:18;;;;;;;;;;;;;;;;;;5073868;28;19924;-78
2023/06/14 08:54:44;;;;;;;;;;;;;;;;;;5053846;28;20022;-75
2023/06/14 08:57:12;;;;;;;;;;;;;;;;;;5088731;28;20392;-69
2023/06/14 08:59:39;;;;;;;;;;;;;;;;;;5074329;28;20377;-75
2023/06/14 09:02:05;;;;;;;;;;;;;;;;;;5055349;28;19928;-77
2023/06/14 09:04:32;;;;;;;;;;;;;;;;;;5086716;28;19924;-76
2023/06/14 09:06:58;;;;;;;;;;;;;;;;;;5070695;28;20278;-76
2023/06/14 09:09:25;;;;;;;;;;;;;;;;;;5053942;28;20331;-76
2023/06/14 09:11:51;;;;;;;;;;;;;;;;;;5037786;28;20014;-76
2023/06/14 09:14:17;;;;;;;;;;;;;;;;;;5082945;28;20053;-75
2023/06/14 09:16:43;;;;;;;;;;;;;;;;;;5053774;28;19931;-75
2023/06/14 09:19:09;;;;;;;;;;;;;;;;;;5036669;28;19920;-76
2023/06/14 09:21:38;;;;;;;;;;;;;;;;;;5053811;28;20328;-75
2023/06/14 09:24:04;;;;;;;;;;;;;;;;;;5087301;28;20022;-76
2023/06/14 09:26:30;;;;;;;;;;;;;;;;;;5054544;28;19986;-76
2023/06/14 09:28:56;;;;;;;;;;;;;;;;;;5053785;28;19924;-77
2023/06/14 09:31:22;;;;;;;;;;;;;;;;;;5071231;28;19924;-79
2023/06/14 09:33:48;;;;;;;;;;;;;;;;;;5072518;28;20311;-81
2023/06/14 09:36:14;;;;;;;;;;;;;;;;;;5072588;28;19931;-79
2023/06/14 09:38:40;;;;;;;;;;;;;;;;;;5057179;28;19924;-78
2023/06/14 09:41:06;;;;;;;;;;;;;;;;;;5073694;28;20011;-79
2023/06/14 09:43:33;;;;;;;;;;;;;;;;;;5056116;28;20007;-78
2023/06/14 09:45:59;;;;;;;;;;;;;;;;;;5073826;28;19920;-79
2023/06/14 09:48:25;;;;;;;;;;;;;;;;;;5072575;28;20010;-83
2023/06/14 09:50:51;;;;;;;;;;;;;;;;;;5086328;28;20098;-78
2023/06/14 09:53:17;;;;;;;;;;;;;;;;;;5060062;28;20280;-78
2023/06/14 09:55:43;;;;;;;;;;;;;;;;;;5067338;28;20441;-81
2023/06/14 09:58:09;;;;;;;;;;;;;;;;;;5077430;28;19943;-73
2023/06/14 10:00:35;;;;;;;;;;;;;;;;;;5070522;28;20421;-83
2023/06/14 10:03:01;;;;;;;;;;;;;;;;;;5052487;28;19956;-81
2023/06/14 10:05:28;;;;;;;;;;;;;;;;;;5071610;28;19924;-85
2023/06/14 10:07:54;;;;;;;;;;;;;;;;;;5056388;28;19968;-81
2023/06/14 10:10:20;;;;;;;;;;;;;;;;;;5059993;28;19924;-82
2023/06/14 10:12:46;;;;;;;;;;;;;;;;;;5072813;28;19943;-82
2023/06/14 10:15:12;;;;;;;;;;;;;;;;;;5073383;28;20364;-84
2023/06/14 10:17:38;;;;;;;;;;;;;;;;;;5089300;28;20354;-82
2023/06/14 10:20:04;;;;;;;;;;;;;;;;;;5060330;28;20319;-71
2023/06/14 10:22:30;;;;;;;;;;;;;;;;;;5076061;28;19920;-80
2023/06/14 10:24:56;;;;;;;;;;;;;;;;;;5070760;28;20016;-83
2023/06/14 10:27:23;;;;;;;;;;;;;;;;;;5065499;28;19931;-82
2023/06/14 10:29:49;;;;;;;;;;;;;;;;;;5071426;28;19924;-84
2023/06/14 10:32:15;;;;;;;;;;;;;;;;;;5073262;28;19930;-85
2023/06/14 10:34:41;;;;;;;;;;;;;;;;;;5071367;28;19924;-84
2023/06/14 10:37:07;;;;;;;;;;;;;;;;;;5063367;28;20433;-81
2023/06/14 10:39:33;;;;;;;;;;;;;;;;;;5050436;28;19924;-81
2023/06/14 10:41:59;;;;;;;;;;;;;;;;;;5088736;28;19924;-84
2023/06/14 10:44:25;;;;;;;;;;;;;;;;;;5066024;28;19973;-85
2023/06/14 10:46:51;;;;;;;;;;;;;;;;;;5073013;28;19923;-86
2023/06/14 10:49:20;;;;;;;;;;;;;;;;;;5067185;28;19982;-74
2023/06/14 10:51:49;;;;;;;;;;;;;;;;;;5060942;28;19928;-85
2023/06/14 10:54:15;;;;;;;;;;;;;;;;;;5062670;28;19924;-89
2023/06/14 10:56:41;;;;;;;;;;;;;;;;;;5059080;28;20014;-80
2023/06/14 10:59:07;;;;;;;;;;;;;;;;;;5076228;28;20397;-80
2023/06/14 11:01:33;;;;;;;;;;;;;;;;;;5057015;28;19932;-81
2023/06/14 11:03:59;;;;;;;;;;;;;;;;;;5075557;28;19923;-81
2023/06/14 11:06:28;;;;;;;;;;;;;;;;;;5069829;28;19977;-80
2023/06/14 11:08:54;;;;;;;;;;;;;;;;;;5059389;28;20274;-80
2023/06/14 11:11:20;;;;;;;;;;;;;;;;;;5059386;28;19931;-80
2023/06/14 11:13:46;;;;;;;;;;;;;;;;;;5066876;28;19923;-78
2023/06/14 11:16:12;;;;;;;;;;;;;;;;;;5074934;28;20308;-79
2023/06/14 11:18:38;;;;;;;;;;;;;;;;;;5074442;28;19931;-78
2023/06/14 11:21:04;;;;;;;;;;;;;;;;;;5063991;28;19974;-80
2023/06/14 11:23:30;;;;;;;;;;;;;;;;;;5073858;28;19924;-80
2023/06/14 11:25:56;;;;;;;;;;;;;;;;;;5075967;28;19924;-80
2023/06/14 11:28:23;;;;;;;;;;;;;;;;;;5074650;28;19984;-81
2023/06/14 11:30:49;;;;;;;;;;;;;;;;;;5067044;28;19974;-79
2023/06/14 11:33:15;;;;;;;;;;;;;;;;;;5067169;28;20357;-79
2023/06/14 11:35:41;;;;;;;;;;;;;;;;;;5073977;28;19920;-80
2023/06/14 11:38:07;;;;;;;;;;;;;;;;;;5073733;28;19920;-80
2023/06/14 11:40:33;;;;;;;;;;;;;;;;;;5075505;28;20270;-80
2023/06/14 11:43:00;;;;;;;;;;;;;;;;;;5069385;28;19976;-80
2023/06/14 11:45:25;;;;;;;;;;;;;;;;;;5066315;28;19981;-81
2023/06/14 11:47:51;;;;;;;;;;;;;;;;;;5074001;28;19927;-80
2023/06/14 11:50:17;;;;;;;;;;;;;;;;;;5046587;28;19964;-81
2023/06/14 11:52:43;;;;;;;;;;;;;;;;;;5058669;28;19935;-80
2023/06/14 11:55:10;;;;;;;;;;;;;;;;;;5056654;28;19920;-80
2023/06/14 11:57:38;;;;;;;;;;;;;;;;;;5066469;28;19930;-79
2023/06/14 12:00:11;;;;;;;;;;;;;;;;;;5057783;28;20365;-78
2023/06/14 12:02:37;;;;;;;;;;;;;;;;;;5065967;28;19928;-83
2023/06/14 12:05:03;;;;;;;;;;;;;;;;;;5058754;28;19923;-79
2023/06/14 12:07:29;;;;;;;;;;;;;;;;;;5073423;28;19931;-79
2023/06/14 12:09:55;;;;;;;;;;;;;;;;;;5066643;28;19920;-79
2023/06/14 12:12:21;;;;;;;;;;;;;;;;;;5069186;28;19955;-79
2023/06/14 12:14:47;;;;;;;;;;;;;;;;;;5061384;28;20428;-78
2023/06/14 12:17:13;;;;;;;;;;;;;;;;;;5058084;28;19924;-80
2023/06/14 12:19:39;;;;;;;;;;;;;;;;;;5073709;28;19931;-79
2023/06/14 12:22:05;;;;;;;;;;;;;;;;;;5067743;28;20007;-79
2023/06/14 12:24:31;;;;;;;;;;;;;;;;;;5068234;28;20015;-79
2023/06/14 12:26:59;;;;;;;;;;;;;;;;;;5074470;28;20285;-79
2023/06/14 12:29:25;;;;;;;;;;;;;;;;;;5073612;28;19920;-79
2023/06/14 12:31:53;;;;;;;;;;;;;;;;;;5073509;28;19919;-79
2023/06/14 12:34:19;;;;;;;;;;;;;;;;;;5050555;28;19931;-79
2023/06/14 12:36:46;;;;;;;;;;;;;;;;;;5071516;28;19927;-79
2023/06/14 12:39:12;;;;;;;;;;;;;;;;;;5074506;28;20305;-79
2023/06/14 12:41:38;;;;;;;;;;;;;;;;;;5056637;28;20410;-78
2023/06/14 12:44:04;;;;;;;;;;;;;;;;;;5053243;28;19924;-80
2023/06/14 12:46:31;;;;;;;;;;;;;;;;;;5065859;28;19970;-80
2023/06/14 12:48:57;;;;;;;;;;;;;;;;;;5087006;28;19963;-80
2023/06/14 12:51:23;;;;;;;;;;;;;;;;;;5073657;28;19966;-80
2023/06/14 12:53:49;;;;;;;;;;;;;;;;;;5057088;28;19981;-78
2023/06/14 12:56:15;;;;;;;;;;;;;;;;;;5092230;28;19928;-77
2023/06/14 12:58:41;;;;;;;;;;;;;;;;;;5070207;28;20010;-78
2023/06/14 13:01:07;;;;;;;;;;;;;;;;;;5082851;28;20003;-77
2023/06/14 13:03:34;;;;;;;;;;;;;;;;;;5055684;28;19923;-77
2023/06/14 13:06:00;;;;;;;;;;;;;;;;;;5056525;28;19924;-77
2023/06/14 13:08:26;;;;;;;;;;;;;;;;;;5072822;28;19942;-78
2023/06/14 13:10:52;;;;;;;;;;;;;;;;;;5080122;28;19928;-77
2023/06/14 13:13:18;;;;;;;;;;;;;;;;;;5072682;28;19920;-78
2023/06/14 13:15:45;;;;;;;;;;;;;;;;;;5072798;28;19920;-78
2023/06/14 13:18:13;;;;;;;;;;;;;;;;;;5072498;28;19927;-78
2023/06/14 13:20:39;;;;;;;;;;;;;;;;;;5056578;28;19924;-78
2023/06/14 13:23:07;;;;;;;;;;;;;;;;;;5054089;28;19925;-78
2023/06/14 13:25:33;;;;;;;;;;;;;;;;;;5054115;28;20067;-79
2023/06/14 13:27:59;;;;;;;;;;;;;;;;;;5052403;28;19924;-79
2023/06/14 13:30:25;;;;;;;;;;;;;;;;;;5051776;28;20390;-80
2023/06/14 13:32:51;;;;;;;;;;;;;;;;;;5052243;28;20868;-79
2023/06/14 13:35:17;;;;;;;;;;;;;;;;;;5091766;28;20309;-79
2023/06/14 13:37:43;;;;;;;;;;;;;;;;;;5098250;28;19935;-78
2023/06/14 13:40:09;;;;;;;;;;;;;;;;;;5052951;28;19978;-79
2023/06/14 13:42:35;;;;;;;;;;;;;;;;;;5051542;28;19928;-79
2023/06/14 13:45:01;;;;;;;;;;;;;;;;;;5056053;28;19931;-79
2023/06/14 13:47:27;;;;;;;;;;;;;;;;;;5070052;28;19924;-79
2023/06/14 13:49:53;;;;;;;;;;;;;;;;;;5055502;28;19920;-78
2023/06/14 13:52:19;;;;;;;;;;;;;;;;;;5043283;28;19924;-79
2023/06/14 13:54:45;;;;;;;;;;;;;;;;;;5056915;28;20254;-78
2023/06/14 13:57:12;;;;;;;;;;;;;;;;;;5047710;28;19927;-79
2023/06/14 13:59:38;;;;;;;;;;;;;;;;;;5050416;28;19927;-79
2023/06/14 14:02:05;;;;;;;;;;;;;;;;;;5069281;28;19972;-79
2023/06/14 14:04:31;;;;;;;;;;;;;;;;;;5098626;28;19982;-80
2023/06/14 14:06:57;;;;;;;;;;;;;;;;;;5092738;28;20258;-80
2023/06/14 14:09:23;;;;;;;;;;;;;;;;;;5062403;28;19943;-79
2023/06/14 14:11:49;;;;;;;;;;;;;;;;;;5087519;28;19981;-78
2023/06/14 14:14:15;;;;;;;;;;;;;;;;;;5045270;28;20344;-79
2023/06/14 14:16:41;;;;;;;;;;;;;;;;;;5054620;28;19931;-79
2023/06/14 14:19:07;;;;;;;;;;;;;;;;;;5061175;28;19977;-79
2023/06/14 14:21:33;;;;;;;;;;;;;;;;;;5065111;28;19924;-80
2023/06/14 14:23:59;;;;;;;;;;;;;;;;;;5089527;28;19931;-83
2023/06/14 14:26:25;;;;;;;;;;;;;;;;;;5039666;28;19939;-82
2023/06/14 14:28:51;;;;;;;;;;;;;;;;;;5071542;28;20323;-79
2023/06/14 14:31:17;;;;;;;;;;;;;;;;;;5055591;28;19924;-80
2023/06/14 14:33:43;;;;;;;;;;;;;;;;;;5055166;28;19928;-80
2023/06/14 14:36:09;;;;;;;;;;;;;;;;;;5062995;28;19924;-81
2023/06/14 14:38:35;;;;;;;;;;;;;;;;;;5086905;28;19920;-80
2023/06/14 14:41:01;;;;;;;;;;;;;;;;;;5059971;28;19924;-80
2023/06/14 14:43:30;;;;;;;;;;;;;;;;;;5059393;28;19931;-80
2023/06/14 14:45:56;;;;;;;;;;;;;;;;;;5057353;28;20015;-80
2023/06/14 14:48:22;;;;;;;;;;;;;;;;;;5088503;28;20019;-81
2023/06/14 14:50:48;;;;;;;;;;;;;;;;;;5067257;28;19931;-83
2023/06/14 14:53:16;;;;;;;;;;;;;;;;;;5046480;28;19920;-82
2023/06/14 14:55:42;;;;;;;;;;;;;;;;;;5055175;28;19963;-82
2023/06/14 14:58:08;;;;;;;;;;;;;;;;;;5058217;28;19948;-83
2023/06/14 15:00:34;;;;;;;;;;;;;;;;;;5055087;28;19927;-83
2023/06/14 15:03:00;;;;;;;;;;;;;;;;;;5095452;28;19921;-82
2023/06/14 15:05:26;;;;;;;;;;;;;;;;;;5073035;28;19988;-83
2023/06/14 15:07:52;;;;;;;;;;;;;;;;;;5058510;28;20011;-82
2023/06/14 15:10:18;;;;;;;;;;;;;;;;;;5059695;28;20442;-82
2023/06/14 15:12:44;;;;;;;;;;;;;;;;;;5056508;28;20283;-82
2023/06/14 15:15:10;;;;;;;;;;;;;;;;;;5044974;28;20358;-83
2023/06/14 15:17:36;;;;;;;;;;;;;;;;;;5060760;28;19927;-83
2023/06/14 15:20:02;;;;;;;;;;;;;;;;;;5064339;28;20551;-82
2023/06/14 15:22:28;;;;;;;;;;;;;;;;;;5076561;28;19920;-83
2023/06/14 15:24:54;;;;;;;;;;;;;;;;;;5075608;28;20392;-83
2023/06/14 15:27:20;;;;;;;;;;;;;;;;;;5059387;28;19926;-83
2023/06/14 15:29:46;;;;;;;;;;;;;;;;;;5070569;28;19928;-83
2023/06/14 15:32:12;;;;;;;;;;;;;;;;;;5060498;28;20014;-80
2023/06/14 15:34:39;;;;;;;;;;;;;;;;;;5071830;28;20003;-80
2023/06/14 15:37:05;;;;;;;;;;;;;;;;;;5064173;28;19924;-79
2023/06/14 15:39:31;;;;;;;;;;;;;;;;;;5064648;28;19924;-81
2023/06/14 15:41:57;;;;;;;;;;;;;;;;;;5091887;28;20297;-69
2023/06/14 15:44:23;;;;;;;;;;;;;;;;;;5092869;28;19931;-73
2023/06/14 15:46:49;;;;;;;;;;;;;;;;;;5092884;28;19924;-69
2023/06/14 15:49:15;;;;;;;;;;;;;;;;;;5092830;28;19931;-69
2023/06/14 15:51:41;;;;;;;;;;;;;;;;;;5092670;28;19924;-80
2023/06/14 15:54:07;;;;;;;;;;;;;;;;;;5092928;28;20060;-84
2023/06/14 15:56:33;;;;;;;;;;;;;;;;;;5093411;28;19924;-68
2023/06/14 15:58:59;;;;;;;;;;;;;;;;;;5092240;28;19928;-69
2023/06/14 16:01:25;;;;;;;;;;;;;;;;;;5075467;28;19963;-70
2023/06/14 16:03:51;;;;;;;;;;;;;;;;;;5092122;28;19924;-70
2023/06/14 16:06:17;;;;;;;;;;;;;;;;;;5092393;28;19947;-71
2023/06/14 16:08:43;;;;;;;;;;;;;;;;;;5092613;28;20524;-70
2023/06/14 16:11:09;;;;;;;;;;;;;;;;;;5091872;28;19920;-70
2023/06/14 16:13:35;;;;;;;;;;;;;;;;;;5091969;28;19932;-70
2023/06/14 16:16:01;;;;;;;;;;;;;;;;;;5091382;28;19928;-69
2023/06/14 16:18:27;;;;;;;;;;;;;;;;;;5091175;28;19974;-70
2023/06/14 16:20:54;;;;;;;;;;;;;;;;;;5092136;28;19923;-69
2023/06/14 16:23:21;;;;;;;;;;;;;;;;;;5092946;28;19927;-68
2023/06/14 16:25:47;;;;;;;;;;;;;;;;;;5092604;28;20387;-68
2023/06/14 16:28:13;;;;;;;;;;;;;;;;;;5091941;28;19920;-68
2023/06/14 16:30:39;;;;;;;;;;;;;;;;;;5092778;28;20312;-80
2023/06/14 16:33:05;;;;;;;;;;;;;;;;;;5073522;28;19920;-75
2023/06/14 16:35:31;;;;;;;;;;;;;;;;;;5074775;28;19920;-76
2023/06/14 16:37:57;;;;;;;;;;;;;;;;;;5074001;28;19941;-76